EGHE/ISC METAR and TAF weather

Enter ICAO airport designator
Station Type Date Time Source
EGHE METAR 2019/09/20 16:50 UTC NOAA

EGHE 201650Z 11027KT CAVOK 17/12 Q1013


Station Type Date Time Source
EGHE Decoded METAR 2019/09/20 16:50 UTC NOAA

Scilly, Saint Mary'S, United Kingdom (EGHE) 49-55N 006-18W 0M
Sep 20, 2019 - 12:50 PM EDT / 2019.09.20 1650 UTC
Wind: from the ESE (110 degrees) at 31 MPH (27 KT):0
Visibility: greater than 7 mile(s):0
Temperature: 62 F (17 C)
Dew Point: 53 F (12 C)
Relative Humidity: 72%
Pressure (altimeter): 29.91 in. Hg (1013 hPa)
ob: EGHE 201650Z 11027KT CAVOK 17/12 Q1013
cycle: 17

Station Type Date Time Source
EGHE TAF UTC NOAA

Error!

Example: see airport list